createdAt,value
2018-06-04T00:00:45.404Z,21.37
2018-06-04T00:03:15.085Z,21.07
2018-06-04T00:05:44.264Z,43.67
2018-06-04T00:08:13.532Z,30.47
2018-06-04T00:10:42.516Z,33.10
2018-06-04T00:13:11.468Z,27.77
2018-06-04T00:15:40.503Z,24.93
2018-06-04T00:18:09.663Z,24.77
2018-06-04T00:20:38.787Z,25.20
2018-06-04T00:23:07.896Z,22.13
2018-06-04T00:25:36.816Z,22.57
2018-06-04T00:28:05.776Z,22.83
2018-06-04T00:30:34.916Z,21.23
2018-06-04T00:33:03.964Z,22.57
2018-06-04T00:35:32.884Z,21.00
2018-06-04T00:38:01.843Z,21.20
2018-06-04T00:40:30.959Z,21.13
2018-06-04T00:43:00.025Z,21.80
2018-06-04T00:45:29.358Z,21.40
2018-06-04T00:47:58.422Z,23.20
2018-06-04T00:50:27.438Z,21.50
2018-06-04T00:52:56.383Z,21.13
2018-06-04T00:55:25.302Z,21.67
2018-06-04T00:57:54.224Z,22.53
2018-06-04T01:00:23.291Z,23.03
2018-06-04T01:02:52.200Z,22.23
2018-06-04T01:05:21.301Z,21.17
2018-06-04T01:07:50.376Z,22.73
2018-06-04T01:10:19.403Z,20.67
2018-06-04T01:12:48.359Z,21.37
2018-06-04T01:15:17.626Z,21.57
2018-06-04T01:17:46.520Z,23.13
2018-06-04T01:20:15.439Z,23.20
2018-06-04T01:22:44.434Z,21.83
2018-06-04T01:25:13.548Z,21.40
2018-06-04T01:27:42.492Z,21.53
2018-06-04T01:30:12.235Z,21.30
2018-06-04T01:32:41.447Z,22.30
2018-06-04T01:35:10.405Z,20.40
2018-06-04T01:37:39.611Z,21.50
2018-06-04T01:40:09.060Z,21.43
2018-06-04T01:42:37.991Z,21.43
2018-06-04T01:45:07.000Z,21.83
2018-06-04T01:47:36.114Z,21.37
2018-06-04T01:50:05.302Z,20.83
2018-06-04T01:52:34.371Z,21.60
2018-06-04T01:55:03.510Z,21.57
2018-06-04T01:57:32.441Z,20.60
2018-06-04T02:00:01.683Z,20.50
2018-06-04T02:02:30.586Z,20.43
2018-06-04T02:04:59.668Z,20.10
2018-06-04T02:07:28.745Z,20.77
2018-06-04T02:09:57.941Z,20.87
2018-06-04T02:12:26.951Z,19.43
2018-06-04T02:14:56.043Z,25.47
2018-06-04T02:17:25.127Z,21.57
2018-06-04T02:19:54.553Z,23.37
2018-06-04T02:22:23.625Z,21.40
2018-06-04T02:24:52.563Z,20.83
2018-06-04T02:27:21.839Z,20.97
2018-06-04T02:29:50.934Z,20.57
2018-06-04T02:32:20.034Z,21.00
2018-06-04T02:34:49.124Z,20.63
2018-06-04T02:37:18.217Z,21.20
2018-06-04T02:39:47.528Z,19.83
2018-06-04T02:42:16.617Z,19.83
2018-06-04T02:44:45.719Z,20.23
2018-06-04T02:47:14.824Z,21.20
2018-06-04T02:49:43.880Z,22.10
2018-06-04T02:52:13.011Z,21.10
2018-06-04T02:54:42.145Z,20.70
2018-06-04T02:57:11.192Z,20.00
2018-06-04T02:59:40.098Z,18.50
2018-06-04T03:02:09.176Z,19.80
2018-06-04T03:04:38.240Z,19.77
2018-06-04T03:07:07.371Z,19.93
2018-06-04T03:09:36.438Z,20.20
2018-06-04T03:12:05.387Z,19.53
2018-06-04T03:14:34.415Z,20.97
2018-06-04T03:17:03.531Z,21.37
2018-06-04T03:19:32.621Z,20.70
2018-06-04T03:22:01.739Z,19.40
2018-06-04T03:24:30.655Z,20.23
2018-06-04T03:26:59.716Z,19.97
2018-06-04T03:29:28.888Z,20.03
2018-06-04T03:31:58.410Z,19.57
2018-06-04T03:34:27.309Z,20.00
2018-06-04T03:36:56.406Z,20.27
2018-06-04T03:39:25.486Z,20.07
2018-06-04T03:41:54.605Z,20.33
2018-06-04T03:44:23.659Z,19.53
2018-06-04T03:46:52.628Z,19.97
2018-06-04T03:49:21.795Z,20.17
2018-06-04T03:51:51.072Z,20.00
2018-06-04T03:54:20.523Z,19.77
2018-06-04T03:56:49.678Z,20.63
2018-06-04T03:59:18.751Z,20.47
2018-06-04T04:01:48.260Z,20.87
2018-06-04T04:04:18.167Z,20.17
2018-06-04T04:06:47.281Z,21.03
2018-06-04T04:09:16.457Z,24.83
2018-06-04T04:11:45.592Z,27.57
2018-06-04T04:14:14.682Z,22.37
2018-06-04T04:16:43.781Z,21.60
2018-06-04T04:19:12.693Z,21.93
2018-06-04T04:21:42.015Z,20.83
2018-06-04T04:24:11.243Z,21.33
2018-06-04T04:26:40.353Z,20.63
2018-06-04T04:29:09.527Z,20.57
2018-06-04T04:31:38.812Z,20.57
2018-06-04T04:34:07.928Z,20.47
2018-06-04T04:36:37.034Z,21.47
2018-06-04T04:39:08.890Z,21.73
2018-06-04T04:41:37.999Z,20.00
2018-06-04T04:44:07.072Z,21.83
2018-06-04T04:46:36.191Z,20.97
2018-06-04T04:49:05.563Z,23.63
2018-06-04T04:51:34.740Z,23.17
2018-06-04T04:54:03.864Z,21.80
2018-06-04T04:56:33.076Z,21.53
2018-06-04T04:59:05.536Z,21.50
2018-06-04T05:01:34.659Z,20.27
2018-06-04T05:04:04.318Z,20.60
2018-06-04T05:06:33.511Z,21.73
2018-06-04T05:09:04.548Z,21.03
2018-06-04T05:11:33.707Z,19.67
2018-06-04T05:14:02.644Z,20.50
2018-06-04T05:16:31.908Z,20.07
2018-06-04T05:19:04.155Z,25.40
2018-06-04T05:21:33.247Z,32.20
2018-06-04T05:24:02.342Z,23.37
2018-06-04T05:26:31.473Z,21.60
2018-06-04T05:29:04.923Z,20.47
2018-06-04T05:31:34.151Z,20.50
2018-06-04T05:34:03.249Z,19.17
2018-06-04T05:36:32.523Z,19.03
2018-06-04T05:39:03.133Z,19.77
2018-06-04T05:41:32.747Z,19.43
2018-06-04T05:44:01.879Z,19.13
2018-06-04T05:46:32.385Z,18.53
2018-06-04T05:49:05.907Z,18.83
2018-06-04T05:51:34.967Z,20.17
2018-06-04T05:54:04.089Z,19.67
2018-06-04T05:56:34.036Z,19.53
2018-06-04T05:59:04.239Z,20.20
2018-06-04T06:01:33.179Z,19.93
2018-06-04T06:04:02.410Z,20.77
2018-06-04T06:06:31.715Z,20.83
2018-06-04T06:09:06.805Z,21.10
2018-06-04T06:11:36.038Z,21.77
2018-06-04T06:14:05.800Z,20.67
2018-06-04T06:16:35.080Z,21.20
2018-06-04T06:19:04.459Z,20.37
2018-06-04T06:21:33.532Z,19.90
2018-06-04T06:24:02.880Z,18.33
2018-06-04T06:26:31.927Z,24.27
2018-06-04T06:29:04.732Z,24.93
2018-06-04T06:31:33.887Z,21.73
2018-06-04T06:34:02.993Z,25.53
2018-06-04T06:36:32.224Z,18.87
2018-06-04T06:39:06.589Z,19.50
2018-06-04T06:41:36.126Z,18.57
2018-06-04T06:44:05.239Z,17.43
2018-06-04T06:46:34.166Z,18.80
2018-06-04T06:49:03.986Z,17.13
2018-06-04T06:51:33.035Z,17.97
2018-06-04T06:54:02.141Z,16.13
2018-06-04T06:56:32.468Z,16.60
2018-06-04T06:59:04.599Z,16.33
2018-06-04T07:01:33.865Z,16.90
2018-06-04T07:04:03.154Z,15.50
2018-06-04T07:06:32.201Z,14.70
2018-06-04T07:09:08.244Z,15.73
2018-06-04T07:11:37.358Z,14.57
2018-06-04T07:14:06.635Z,14.57
2018-06-04T07:16:35.768Z,13.77
2018-06-04T07:19:04.798Z,14.97
2018-06-04T07:21:34.055Z,14.07
2018-06-04T07:24:03.147Z,14.10
2018-06-04T07:26:32.083Z,15.27
2018-06-04T07:29:05.263Z,14.40
2018-06-04T07:31:34.488Z,13.27
2018-06-04T07:34:03.531Z,14.23
2018-06-04T07:36:32.724Z,14.63
2018-06-04T07:39:03.583Z,14.77
2018-06-04T07:41:32.956Z,14.40
2018-06-04T07:44:02.075Z,15.10
2018-06-04T07:46:30.998Z,13.77
2018-06-04T07:49:03.884Z,13.37
2018-06-04T07:51:32.929Z,14.60
2018-06-04T07:54:02.033Z,15.27
2018-06-04T07:56:31.111Z,13.87
2018-06-04T07:59:04.443Z,15.40
2018-06-04T08:01:33.547Z,16.00
2018-06-04T08:04:02.604Z,15.87
2018-06-04T08:06:32.145Z,16.83
2018-06-04T08:09:03.066Z,14.60
2018-06-04T08:11:32.239Z,14.90
2018-06-04T08:14:01.171Z,14.73
2018-06-04T08:16:30.253Z,14.83
2018-06-04T08:19:02.465Z,14.27
2018-06-04T08:21:31.730Z,14.63
2018-06-04T08:24:01.267Z,14.93
2018-06-04T08:26:31.007Z,13.27
2018-06-04T08:29:03.198Z,12.70
2018-06-04T08:31:32.475Z,13.57
2018-06-04T08:34:02.671Z,13.90
2018-06-04T08:36:31.951Z,11.23
2018-06-04T08:39:08.105Z,12.27
2018-06-04T08:41:37.143Z,10.70
2018-06-04T08:44:06.255Z,10.93
2018-06-04T08:46:35.331Z,10.65
2018-06-04T08:49:04.540Z,9.98
2018-06-04T08:51:33.633Z,9.80
2018-06-04T08:54:02.578Z,9.70
2018-06-04T08:56:31.825Z,9.00
2018-06-04T08:59:04.219Z,9.88
2018-06-04T09:01:33.475Z,10.00
2018-06-04T09:04:02.629Z,10.03
2018-06-04T09:06:31.691Z,10.53
2018-06-04T09:09:06.543Z,10.37
2018-06-04T09:11:36.217Z,11.63
2018-06-04T09:14:05.194Z,10.53
2018-06-04T09:16:34.439Z,10.83
2018-06-04T09:19:03.823Z,11.13
2018-06-04T09:21:32.773Z,10.37
2018-06-04T09:24:01.996Z,11.40
2018-06-04T09:26:30.943Z,12.55
2018-06-04T09:29:04.919Z,9.93
2018-06-04T09:31:36.863Z,9.60
2018-06-04T09:34:05.998Z,9.55
2018-06-04T09:36:35.107Z,8.55
2018-06-04T09:39:05.495Z,10.20
2018-06-04T09:41:34.822Z,9.43
2018-06-04T09:44:04.128Z,9.55
2018-06-04T09:46:33.390Z,9.38
2018-06-04T09:49:04.279Z,9.65
2018-06-04T09:51:33.324Z,10.28
2018-06-04T09:54:02.311Z,8.65
2018-06-04T09:56:31.325Z,8.33
2018-06-04T09:59:03.984Z,9.35
2018-06-04T10:01:33.080Z,8.80
2018-06-04T10:04:02.169Z,8.98
2018-06-04T10:06:31.367Z,8.85
2018-06-04T10:09:06.606Z,9.33
2018-06-04T10:11:35.716Z,9.68
2018-06-04T10:14:05.263Z,8.85
2018-06-04T10:16:34.548Z,9.93
2018-06-04T10:19:04.709Z,8.38
2018-06-04T10:21:33.855Z,8.10
2018-06-04T10:24:02.766Z,8.33
2018-06-04T10:26:32.039Z,7.80
2018-06-04T10:29:02.852Z,8.55
2018-06-04T10:31:32.178Z,8.83
2018-06-04T10:34:01.248Z,8.88
2018-06-04T10:36:30.356Z,8.35
2018-06-04T10:39:03.413Z,8.18
2018-06-04T10:41:33.056Z,8.58
2018-06-04T10:44:01.996Z,10.68
2018-06-04T10:46:31.747Z,7.80
2018-06-04T10:49:02.768Z,7.90
2018-06-04T10:51:31.965Z,7.92
2018-06-04T10:54:01.007Z,8.20
2018-06-04T10:56:31.100Z,8.40
2018-06-04T10:59:03.912Z,8.10
2018-06-04T11:01:32.980Z,9.13
2018-06-04T11:04:01.900Z,7.63
2018-06-04T11:06:31.195Z,8.03
2018-06-04T11:09:06.649Z,9.00
2018-06-04T11:11:35.918Z,8.80
2018-06-04T11:14:05.061Z,7.03
2018-06-04T11:16:34.643Z,8.17
2018-06-04T11:19:03.834Z,7.70
2018-06-04T11:21:32.918Z,8.00
2018-06-04T11:24:01.995Z,8.60
2018-06-04T11:26:31.308Z,8.90
2018-06-04T11:29:04.498Z,10.90
2018-06-04T11:31:33.588Z,7.97
2018-06-04T11:34:02.662Z,7.40
2018-06-04T11:36:31.702Z,10.50
2018-06-04T11:39:05.775Z,8.13
2018-06-04T11:41:34.890Z,7.70
2018-06-04T11:44:04.031Z,8.73
2018-06-04T11:46:33.071Z,8.40
2018-06-04T11:49:04.611Z,7.63
2018-06-04T11:51:33.732Z,7.40
2018-06-04T11:54:02.804Z,7.90
2018-06-04T11:56:32.011Z,7.13
2018-06-04T11:59:04.300Z,7.10
2018-06-04T12:01:33.383Z,8.27
2018-06-04T12:04:02.652Z,7.60
2018-06-04T12:06:31.779Z,7.73
2018-06-04T12:09:02.741Z,6.77
2018-06-04T12:11:32.051Z,7.17
2018-06-04T12:14:01.093Z,6.43
2018-06-04T12:16:30.275Z,7.20
2018-06-04T12:19:02.838Z,6.73
2018-06-04T12:21:31.988Z,7.30
2018-06-04T12:24:01.070Z,6.67
2018-06-04T12:26:30.026Z,7.23
2018-06-04T12:29:02.841Z,7.03
2018-06-04T12:31:32.051Z,8.57
2018-06-04T12:34:01.159Z,6.37
2018-06-04T12:36:30.256Z,6.50
2018-06-04T12:39:02.509Z,6.50
2018-06-04T12:41:31.430Z,7.70
2018-06-04T12:44:00.930Z,6.67
2018-06-04T12:46:29.996Z,7.50
2018-06-04T12:49:02.875Z,6.57
2018-06-04T12:51:32.391Z,6.73
2018-06-04T12:54:01.901Z,6.40
2018-06-04T12:56:31.900Z,6.20
2018-06-04T12:59:04.491Z,5.90
2018-06-04T13:01:33.479Z,6.37
2018-06-04T13:04:02.852Z,7.20
2018-06-04T13:06:31.906Z,8.63
2018-06-04T13:09:06.289Z,6.43
2018-06-04T13:11:35.336Z,6.80
2018-06-04T13:14:04.672Z,6.17
2018-06-04T13:16:33.606Z,6.40
2018-06-04T13:19:03.398Z,7.20
2018-06-04T13:21:32.503Z,7.00
2018-06-04T13:24:01.429Z,6.40
2018-06-04T13:26:30.482Z,6.70
2018-06-04T13:29:03.236Z,6.17
2018-06-04T13:31:32.204Z,5.93
2018-06-04T13:34:01.174Z,6.20
2018-06-04T13:36:30.080Z,6.70
2018-06-04T13:39:02.028Z,6.50
2018-06-04T13:41:30.971Z,7.50
2018-06-04T13:43:59.921Z,6.83
2018-06-04T13:46:28.866Z,6.77
2018-06-04T13:49:01.940Z,6.50
2018-06-04T13:51:31.162Z,6.63
2018-06-04T13:54:00.324Z,6.47
2018-06-04T13:56:29.577Z,6.37
2018-06-04T13:59:01.763Z,7.40
2018-06-04T14:01:31.743Z,6.30
2018-06-04T14:04:00.935Z,6.63
2018-06-04T14:06:29.835Z,5.63
2018-06-04T14:09:01.885Z,5.60
2018-06-04T14:11:30.820Z,5.63
2018-06-04T14:13:59.841Z,5.50
2018-06-04T14:16:28.777Z,6.10
2018-06-04T14:19:02.544Z,7.97
2018-06-04T14:21:31.469Z,13.80
2018-06-04T14:24:00.391Z,5.40
2018-06-04T14:26:29.284Z,5.07
2018-06-04T14:28:59.794Z,6.00
2018-06-04T14:31:31.738Z,5.20
2018-06-04T14:34:00.675Z,6.03
2018-06-04T14:36:29.926Z,8.00
2018-06-04T14:39:06.063Z,6.40
2018-06-04T14:41:35.207Z,17.53
2018-06-04T14:44:04.166Z,18.83
2018-06-04T14:46:33.120Z,6.83
2018-06-04T14:49:03.565Z,7.43
2018-06-04T14:51:32.519Z,6.43
2018-06-04T14:54:01.521Z,6.63
2018-06-04T14:56:30.514Z,6.20
2018-06-04T14:59:03.025Z,6.17
2018-06-04T15:01:32.277Z,6.33
2018-06-04T15:04:01.250Z,6.13
2018-06-04T15:06:30.221Z,6.47
2018-06-04T15:09:02.275Z,6.77
2018-06-04T15:11:31.226Z,6.10
2018-06-04T15:14:00.215Z,6.07
2018-06-04T15:16:29.198Z,6.43
2018-06-04T15:19:01.345Z,5.80
2018-06-04T15:21:30.532Z,5.90
2018-06-04T15:24:00.099Z,5.57
2018-06-04T15:26:29.111Z,7.27
2018-06-04T15:29:02.813Z,28.97
2018-06-04T15:31:31.754Z,6.63
2018-06-04T15:34:00.740Z,6.40
2018-06-04T15:36:29.653Z,5.60
2018-06-04T15:39:02.238Z,6.03
2018-06-04T15:41:31.501Z,5.70
2018-06-04T15:44:00.471Z,5.50
2018-06-04T15:46:29.412Z,6.13
2018-06-04T15:48:58.465Z,5.80
2018-06-04T15:51:27.603Z,5.73
2018-06-04T15:53:56.858Z,5.60
2018-06-04T15:56:25.770Z,5.57
2018-06-04T15:58:54.696Z,5.83
2018-06-04T16:01:24.929Z,6.43
2018-06-04T16:03:54.072Z,6.93
2018-06-04T16:06:23.306Z,7.10
2018-06-04T16:08:52.617Z,7.13
2018-06-04T16:11:21.593Z,8.00
2018-06-04T16:13:50.530Z,6.83
2018-06-04T16:16:19.566Z,5.80
2018-06-04T16:18:48.623Z,5.50
2018-06-04T16:21:17.751Z,6.40
2018-06-04T16:23:47.445Z,5.77
2018-06-04T16:26:16.511Z,5.90
2018-06-04T16:28:45.419Z,5.33
2018-06-04T16:31:14.439Z,5.70
2018-06-04T16:33:44.143Z,5.63
2018-06-04T16:36:13.084Z,5.80
2018-06-04T16:38:42.062Z,6.07
2018-06-04T16:41:11.243Z,6.10
2018-06-04T16:43:40.319Z,5.87
2018-06-04T16:46:09.301Z,6.87
2018-06-04T16:48:38.243Z,6.57
2018-06-04T16:51:07.615Z,6.30
2018-06-04T16:53:36.549Z,5.77
2018-06-04T16:56:05.546Z,17.57
2018-06-04T16:58:34.458Z,14.87
2018-06-04T17:01:03.429Z,7.13
2018-06-04T17:03:32.554Z,6.63
2018-06-04T17:06:01.491Z,6.33
2018-06-04T17:08:30.568Z,6.73
2018-06-04T17:10:59.511Z,6.43
2018-06-04T17:13:28.734Z,6.50
2018-06-04T17:15:57.720Z,6.27
2018-06-04T17:18:26.763Z,6.40
2018-06-04T17:20:55.740Z,6.20
2018-06-04T17:23:24.703Z,14.20
2018-06-04T17:25:54.377Z,36.27
2018-06-04T17:28:23.490Z,7.50
2018-06-04T17:30:52.786Z,7.70
2018-06-04T17:33:21.714Z,7.43
2018-06-04T17:35:50.993Z,8.40
2018-06-04T17:38:20.297Z,8.63
2018-06-04T17:40:49.551Z,8.60
2018-06-04T17:43:18.775Z,8.83
2018-06-04T17:45:48.308Z,8.93
2018-06-04T17:48:17.399Z,8.87
2018-06-04T17:50:46.603Z,23.03
2018-06-04T17:53:15.690Z,26.47
2018-06-04T17:55:44.628Z,11.67
2018-06-04T17:58:13.546Z,9.57
2018-06-04T18:00:42.682Z,9.17
2018-06-04T18:03:12.027Z,10.50
2018-06-04T18:05:41.483Z,9.93
2018-06-04T18:08:10.970Z,10.17
2018-06-04T18:10:40.187Z,9.27
2018-06-04T18:13:09.299Z,10.80
2018-06-04T18:15:38.371Z,11.83
2018-06-04T18:18:07.883Z,17.80
2018-06-04T18:20:37.079Z,17.80
2018-06-04T18:23:06.586Z,13.73
2018-06-04T18:25:35.668Z,12.50
2018-06-04T18:28:04.778Z,13.20
2018-06-04T18:30:33.954Z,14.20
2018-06-04T18:33:03.067Z,13.60
2018-06-04T18:35:32.348Z,14.10
2018-06-04T18:38:01.470Z,15.47
2018-06-04T18:40:30.559Z,14.17
2018-06-04T18:42:59.667Z,16.57
2018-06-04T18:45:28.946Z,16.43
2018-06-04T18:47:58.103Z,16.57
2018-06-04T18:50:27.638Z,16.90
2018-06-04T18:52:56.786Z,15.27
2018-06-04T18:55:26.046Z,16.17
2018-06-04T18:57:55.924Z,16.40
2018-06-04T20:27:04.267Z,17.13
2018-06-04T20:29:33.948Z,18.27
2018-06-04T20:32:03.119Z,17.77
2018-06-04T20:34:32.139Z,17.50
2018-06-04T20:37:01.392Z,18.67
2018-06-04T20:39:30.351Z,17.43
2018-06-04T20:41:59.689Z,18.47
2018-06-04T20:44:28.907Z,18.23
2018-06-04T20:46:57.865Z,16.57
2018-06-04T20:49:26.798Z,17.87
2018-06-04T20:51:55.723Z,18.43
2018-06-04T20:54:24.779Z,18.63
2018-06-04T20:56:53.730Z,19.17
2018-06-04T20:59:22.691Z,19.03
2018-06-04T21:01:52.034Z,18.07
2018-06-04T21:04:21.025Z,18.07
2018-06-04T21:06:49.956Z,18.60
2018-06-04T21:09:18.895Z,16.90
2018-06-04T21:11:48.083Z,17.33
2018-06-04T21:14:18.223Z,16.93
2018-06-04T21:16:47.151Z,16.70
2018-06-04T21:19:16.357Z,17.13
2018-06-04T21:21:45.701Z,18.07
2018-06-04T21:24:14.967Z,18.70
2018-06-04T21:26:44.878Z,18.63
2018-06-04T21:29:13.977Z,18.10
2018-06-04T21:31:43.167Z,18.13
2018-06-04T21:34:12.288Z,27.00
2018-06-04T21:36:41.222Z,58.87
2018-06-04T21:39:10.517Z,23.17
2018-06-04T21:41:39.752Z,27.87
2018-06-04T21:44:08.702Z,21.47
2018-06-04T21:46:37.663Z,19.07
2018-06-04T21:49:06.879Z,23.67
2018-06-04T21:51:36.033Z,35.30
2018-06-04T21:54:05.129Z,23.93
2018-06-04T21:56:34.243Z,21.63
2018-06-04T21:59:03.539Z,18.73
2018-06-04T22:01:32.838Z,25.57
2018-06-04T22:04:01.950Z,21.30
2018-06-04T22:06:30.990Z,22.73
2018-06-04T22:09:00.092Z,20.77
2018-06-04T22:11:29.509Z,20.57
2018-06-04T22:13:58.774Z,20.83
2018-06-04T22:16:28.086Z,18.13
2018-06-04T22:18:57.182Z,19.13
2018-06-04T22:21:26.566Z,18.63
2018-06-04T22:23:55.781Z,21.27
2018-06-04T22:26:24.944Z,64.83
2018-06-04T22:28:54.197Z,31.83
2018-06-04T22:31:23.418Z,40.77
2018-06-04T22:33:52.670Z,37.40
2018-06-04T22:36:21.655Z,30.33
2018-06-04T22:38:50.859Z,18.63
2018-06-04T22:41:19.778Z,40.90
2018-06-04T22:43:49.050Z,34.57
2018-06-04T22:46:18.185Z,32.43
2018-06-04T22:48:47.103Z,31.67
2018-06-04T22:51:16.460Z,22.27
2018-06-04T22:53:45.559Z,26.93
2018-06-04T22:56:14.643Z,21.10
2018-06-04T22:58:43.558Z,21.07
2018-06-04T23:01:12.634Z,25.80
2018-06-04T23:03:41.728Z,25.17
2018-06-04T23:06:11.028Z,26.20
2018-06-04T23:08:40.555Z,77.87
2018-06-04T23:11:09.627Z,18.33
2018-06-04T23:13:38.732Z,18.83
2018-06-04T23:16:07.823Z,20.50
2018-06-04T23:18:36.807Z,17.73
2018-06-04T23:21:05.933Z,17.63
2018-06-04T23:23:35.029Z,18.07
2018-06-04T23:26:04.144Z,17.07
2018-06-04T23:28:33.394Z,18.17
2018-06-04T23:31:02.536Z,138.03
2018-06-04T23:33:31.991Z,54.97
2018-06-04T23:36:01.112Z,25.43
2018-06-04T23:38:30.177Z,20.63
2018-06-04T23:40:59.401Z,18.97
2018-06-04T23:43:28.357Z,18.33
2018-06-04T23:45:57.334Z,19.03
2018-06-04T23:48:26.278Z,18.60
2018-06-04T23:50:55.575Z,33.63
2018-06-04T23:53:24.710Z,23.10
2018-06-04T23:55:54.830Z,68.17
2018-06-04T23:58:24.077Z,24.23
